Time;durP1;ratioP1;P1;durP2;ratioP2;P2;SDS_P1;SDS_P2;PMS_P1;PMS_P2;Temp;Humidity;BMP_temperature;BMP_pressure;BME280_temperature;BME280_humidity;BME280_pressure;Samples;Min_cycle;Max_cycle;Signal;HPM_P1;HPM_P2
2022/12/29 00:00:48;;;;;;;;;0.00;0.00;;;;;20.01;48.68;100459.03;2451245;27;45176;-63
2022/12/29 00:01:58;;;;;;;;;1.00;1.00;;;;;20.00;48.65;100448.50;2455679;27;46700;-63
2022/12/29 00:03:09;;;;;;;;;0.00;0.00;;;;;19.99;48.70;100442.31;2450571;27;45234;-63
2022/12/29 00:04:19;;;;;;;;;0.00;0.00;;;;;20.00;48.74;100451.16;2454257;27;46350;-63
2022/12/29 00:05:29;;;;;;;;;0.00;0.00;;;;;19.99;49.01;100446.78;2456241;27;44737;-63
2022/12/29 00:06:41;;;;;;;;;0.00;0.00;;;;;19.98;48.71;100443.25;2458674;27;45378;-62
2022/12/29 00:07:51;;;;;;;;;0.00;0.00;;;;;19.97;48.92;100444.25;2458958;27;45235;-63
2022/12/29 00:09:01;;;;;;;;;0.00;0.00;;;;;19.96;48.98;100447.88;2458903;27;45479;-62
2022/12/29 00:10:12;;;;;;;;;0.00;0.00;;;;;19.95;48.84;100438.16;2458911;27;45187;-63
2022/12/29 00:11:26;;;;;;;;;0.25;0.25;;;;;19.94;49.00;100452.47;2458921;27;45262;-63
2022/12/29 00:15:38;;;;;;;;;0.00;0.00;;;;;19.93;48.94;100441.94;2458965;27;45269;-63
2022/12/29 00:16:49;;;;;;;;;0.00;0.00;;;;;19.92;49.08;100434.91;2458784;27;46445;-62
2022/12/29 00:17:59;;;;;;;;;0.75;0.00;;;;;19.90;48.76;100438.53;2455747;27;45167;-63
2022/12/29 00:35:07;;;;;;;;;1.00;0.25;;;;;19.90;48.99;100432.38;2452176;27;46331;-63
2022/12/29 00:35:52;;;;;;;;;1.00;0.00;;;;;19.78;49.05;100403.00;2452207;28;45324;-62
2022/12/29 00:37:02;;;;;;;;;0.25;0.25;;;;;19.76;49.15;100412.94;2452137;28;46342;-63
2022/12/29 00:44:29;;;;;;;;;0.00;0.00;;;;;19.72;49.36;100398.16;2430684;28;45418;-63
2022/12/29 00:45:41;;;;;;;;;0.00;0.00;;;;;19.70;49.37;100394.78;2428880;28;46701;-63
2022/12/29 00:46:51;;;;;;;;;0.00;0.00;;;;;19.71;49.18;100400.94;2437035;27;44659;-63
2022/12/29 00:48:01;;;;;;;;;0.50;0.50;;;;;19.71;49.29;100399.13;2451634;27;45401;-63
2022/12/29 00:49:32;;;;;;;;;0.00;0.00;;;;;19.72;49.11;100394.63;2452128;27;45297;-63
2022/12/29 00:50:42;;;;;;;;;0.00;0.00;;;;;19.70;49.37;100389.44;2451913;27;46334;-62
2022/12/29 00:51:54;;;;;;;;;0.00;0.00;;;;;19.71;49.23;100390.25;2452213;27;45218;-63
2022/12/29 00:53:04;;;;;;;;;2.00;0.00;;;;;19.71;49.46;100385.78;2451526;27;45275;-63
2022/12/29 00:54:15;;;;;;;;;0.00;0.00;;;;;19.71;49.34;100399.13;2452011;27;45298;-63
2022/12/29 00:55:25;;;;;;;;;0.00;0.00;;;;;19.71;49.37;100396.44;2451755;27;45439;-62
2022/12/29 00:56:36;;;;;;;;;0.00;0.00;;;;;19.71;49.20;100401.78;2452090;27;44643;-62
2022/12/29 00:57:46;;;;;;;;;1.00;0.00;;;;;19.72;49.35;100400.81;2451847;27;45245;-62
2022/12/29 00:59:00;;;;;;;;;1.50;0.00;;;;;19.71;49.30;100385.78;2452117;27;45143;-63
2022/12/29 01:00:11;;;;;;;;;0.25;0.00;;;;;19.72;49.25;100387.50;2451900;27;46545;-63
2022/12/29 01:01:21;;;;;;;;;1.00;0.00;;;;;19.71;49.49;100385.78;2452267;27;45299;-62
2022/12/29 01:02:32;;;;;;;;;0.00;0.00;;;;;19.72;49.06;100400.81;2451840;27;45609;-62
2022/12/29 01:03:42;;;;;;;;;0.00;0.00;;;;;19.71;49.08;100388.44;2451339;27;44661;-63
2022/12/29 01:04:52;;;;;;;;;0.00;0.00;;;;;19.71;49.18;100388.44;2451709;27;46575;-62
2022/12/29 01:06:05;;;;;;;;;0.00;0.00;;;;;19.71;49.17;100385.78;2451845;27;45340;-62
2022/12/29 01:07:15;;;;;;;;;1.00;1.00;;;;;19.71;49.05;100382.25;2451809;27;46341;-62
2022/12/29 01:08:27;;;;;;;;;1.00;1.00;;;;;19.70;49.11;100400.09;2452015;27;45217;-62
2022/12/29 01:11:10;;;;;;;;;0.00;0.00;;;;;19.70;49.16;100399.25;2448325;28;44755;-63
2022/12/29 01:12:40;;;;;;;;;0.00;0.00;;;;;19.69;49.23;100390.38;2451485;27;45530;-62
2022/12/29 01:13:50;;;;;;;;;0.00;0.00;;;;;19.69;49.22;100401.06;2451974;27;44822;-63
2022/12/29 01:15:00;;;;;;;;;0.00;0.00;;;;;19.69;49.13;100403.72;2451764;27;45401;-63
2022/12/29 01:16:10;;;;;;;;;0.00;0.00;;;;;19.68;49.27;100402.88;2451985;27;44669;-62
2022/12/29 01:17:21;;;;;;;;;0.00;0.00;;;;;19.67;49.40;100390.53;2451875;27;46289;-62
2022/12/29 01:18:31;;;;;;;;;0.00;0.00;;;;;19.69;49.35;100387.72;2451899;27;44654;-62
2022/12/29 01:19:41;;;;;;;;;0.00;0.00;;;;;19.70;49.34;100394.78;2446476;27;46156;-62
2022/12/29 01:20:59;;;;;;;;;0.00;0.00;;;;;19.70;49.26;100400.09;2452022;27;45220;-63
2022/12/29 01:22:10;;;;;;;;;0.00;0.00;;;;;19.68;48.94;100397.53;2451205;27;46184;-62
2022/12/29 01:23:20;;;;;;;;;0.00;0.00;;;;;19.68;49.27;100394.88;2452127;27;45302;-63
2022/12/29 01:24:30;;;;;;;;;0.00;0.00;;;;;19.70;49.23;100396.56;2451639;27;46701;-62
2022/12/29 01:25:41;;;;;;;;;0.00;0.00;;;;;19.68;49.38;100402.00;2451662;27;44685;-62
2022/12/29 01:26:51;;;;;;;;;0.25;0.00;;;;;19.69;49.20;100395.72;2451594;27;46624;-62
2022/12/29 01:28:02;;;;;;;;;0.00;0.00;;;;;19.70;49.30;100397.44;2451797;28;45418;-62
2022/12/29 01:29:12;;;;;;;;;0.00;0.00;;;;;19.68;49.00;100402.00;2451422;27;45530;-62
2022/12/29 01:30:23;;;;;;;;;0.00;0.00;;;;;19.70;49.23;100404.56;2450871;27;45305;-62
2022/12/29 01:31:33;;;;;;;;;0.00;0.00;;;;;19.68;49.03;100408.19;2451786;27;45255;-62
2022/12/29 01:32:43;;;;;;;;;0.25;0.00;;;;;19.69;49.25;100414.38;2451793;27;45320;-62
2022/12/29 01:33:54;;;;;;;;;0.00;0.00;;;;;19.71;49.41;100408.91;2451602;27;45588;-62
2022/12/29 01:35:04;;;;;;;;;0.00;0.00;;;;;19.70;49.12;100402.75;2451951;27;45346;-62
2022/12/29 01:36:17;;;;;;;;;0.00;0.00;;;;;19.71;49.12;100408.91;2451654;27;46083;-63
2022/12/29 01:37:27;;;;;;;;;0.00;0.00;;;;;19.70;49.06;100401.91;2451029;27;44716;-62
2022/12/29 01:38:38;;;;;;;;;0.00;0.00;;;;;19.71;49.35;100390.25;2451632;27;45423;-62
2022/12/29 01:39:49;;;;;;;;;2.00;0.00;;;;;19.70;49.34;100400.09;2451826;27;44547;-62
2022/12/29 01:40:59;;;;;;;;;0.00;0.00;;;;;19.71;49.15;100396.44;2451372;27;45203;-62
2022/12/29 01:42:18;;;;;;;;;0.50;0.00;;;;;19.70;49.49;100416.09;2451631;27;45447;-62
2022/12/29 01:43:43;;;;;;;;;0.25;0.00;;;;;19.71;49.25;100407.13;2451640;27;45681;-62
2022/12/29 01:44:59;;;;;;;;;0.25;0.00;;;;;19.72;49.22;100413.28;2450968;27;45152;-62
2022/12/29 01:46:29;;;;;;;;;0.25;0.25;;;;;19.72;49.09;100402.63;2451743;27;45347;-62
2022/12/29 01:48:01;;;;;;;;;0.25;0.00;;;;;19.72;48.87;100402.63;2451835;27;45239;-62
2022/12/29 01:49:32;;;;;;;;;0.00;0.00;;;;;19.73;48.94;100415.00;2451457;28;45307;-62
2022/12/29 01:50:49;;;;;;;;;0.00;0.00;;;;;19.72;49.10;100419.47;2451281;27;45250;-62
2022/12/29 01:52:05;;;;;;;;;0.00;0.00;;;;;19.72;49.49;100423.97;2451121;27;46253;-62
2022/12/29 01:53:20;;;;;;;;;0.00;0.00;;;;;19.72;49.22;100416.81;2451867;28;45281;-62
2022/12/29 01:54:37;;;;;;;;;0.00;0.00;;;;;19.72;49.41;100435.47;2451413;27;45680;-62
2022/12/29 01:55:55;;;;;;;;;0.00;0.00;;;;;19.72;48.87;100432.81;2451462;27;44684;-62
2022/12/29 01:57:10;;;;;;;;;0.00;0.00;;;;;19.73;49.14;100426.50;2448244;27;45279;-62
2022/12/29 01:58:24;;;;;;;;;1.75;0.00;;;;;19.74;49.23;100427.34;2442178;28;45333;-62
2022/12/29 01:59:40;;;;;;;;;1.00;1.00;;;;;19.73;49.28;100423.00;2451473;27;46076;-62
2022/12/29 02:00:50;;;;;;;;;0.00;0.00;;;;;19.73;48.87;100431.84;2451713;28;44673;-62
2022/12/29 02:02:01;;;;;;;;;0.00;0.00;;;;;19.74;49.00;100433.53;2451373;27;46501;-62
2022/12/29 02:03:12;;;;;;;;;0.00;0.00;;;;;19.75;49.19;100435.25;2451738;27;45156;-63
2022/12/29 02:04:24;;;;;;;;;0.00;0.00;;;;;19.75;48.99;100431.72;2451763;27;45332;-62
2022/12/29 02:05:47;;;;;;;;;0.00;0.00;;;;;19.75;48.89;100427.25;2447043;27;45271;-62
2022/12/29 02:07:03;;;;;;;;;0.00;0.00;;;;;19.74;48.91;100430.88;2451245;27;46714;-62
2022/12/29 02:08:13;;;;;;;;;0.00;0.00;;;;;19.75;48.99;100429.91;2451564;27;45255;-62
2022/12/29 02:09:24;;;;;;;;;0.00;0.00;;;;;19.75;49.18;100419.25;2451392;27;45429;-62
2022/12/29 02:10:36;;;;;;;;;0.00;0.00;;;;;19.75;49.10;100415.75;2451310;27;45209;-62
2022/12/29 02:11:46;;;;;;;;;0.00;0.00;;;;;19.75;48.85;100419.25;2449285;28;45665;-62
2022/12/29 02:12:56;;;;;;;;;0.00;0.00;;;;;19.75;49.09;100415.75;2445105;28;45413;-63
2022/12/29 02:14:14;;;;;;;;;0.00;0.00;;;;;19.75;49.20;100415.75;2447500;28;45242;-63
2022/12/29 02:15:42;;;;;;;;;0.00;0.00;;;;;19.74;49.17;100428.22;2444409;28;44680;-63
2022/12/29 02:17:05;;;;;;;;;0.00;0.00;;;;;19.75;49.05;100429.91;2446976;27;45459;-62
2022/12/29 02:18:22;;;;;;;;;0.00;0.00;;;;;19.74;49.11;100422.88;2451598;27;44548;-62
2022/12/29 02:19:35;;;;;;;;;0.00;0.00;;;;;19.75;49.19;100419.25;2451358;28;45278;-62
2022/12/29 02:20:48;;;;;;;;;0.00;0.00;;;;;19.74;49.19;100420.22;2451370;28;44626;-62
2022/12/29 02:22:23;;;;;;;;;0.00;0.00;;;;;19.74;49.20;100422.88;2451294;27;45285;-62
2022/12/29 02:24:01;;;;;;;;;0.00;0.00;;;;;19.74;49.09;100422.88;2450602;28;44618;-62
2022/12/29 02:25:30;;;;;;;;;0.00;0.00;;;;;19.74;48.99;100427.34;2451213;28;46356;-63
2022/12/29 02:27:15;;;;;;;;;0.00;0.00;;;;;19.73;49.16;100426.50;2451331;27;45325;-62
2022/12/29 02:28:44;;;;;;;;;0.00;0.00;;;;;19.73;48.89;100420.34;2451274;28;46553;-62
2022/12/29 02:30:16;;;;;;;;;0.50;0.00;;;;;19.72;49.26;100424.81;2451444;28;44605;-62
2022/12/29 02:31:51;;;;;;;;;0.00;0.00;;;;;19.71;49.20;100423.09;2450808;28;46282;-62
2022/12/29 02:33:04;;;;;;;;;0.00;0.00;;;;;19.71;48.98;100423.09;2451503;27;45365;-62
2022/12/29 02:34:45;;;;;;;;;0.00;0.00;;;;;19.71;48.96;100443.56;2451260;28;46956;-62
2022/12/29 02:36:28;;;;;;;;;0.00;0.00;;;;;19.71;49.15;100401.78;2451608;27;44526;-62
2022/12/29 02:37:54;;;;;;;;;0.00;0.00;;;;;19.71;48.79;100428.44;2421056;28;47372;-62
2022/12/29 02:39:33;;;;;;;;;1.00;0.00;;;;;19.73;49.08;100423.00;2429492;28;45190;-62
2022/12/29 02:40:51;;;;;;;;;0.00;0.00;;;;;19.71;48.94;100427.59;2425142;28;45514;-62
2022/12/29 02:42:10;;;;;;;;;0.00;0.00;;;;;19.72;48.95;100423.97;2449904;28;45440;-62
2022/12/29 02:43:38;;;;;;;;;0.00;0.00;;;;;19.72;49.16;100424.81;2451244;27;46591;-62
2022/12/29 02:44:58;;;;;;;;;0.00;0.00;;;;;19.71;48.71;100425.78;2451344;27;45227;-62
2022/12/29 02:46:18;;;;;;;;;0.00;0.00;;;;;19.72;48.89;100435.47;2451220;27;46822;-62
2022/12/29 02:47:54;;;;;;;;;0.00;0.00;;;;;19.72;49.20;100435.47;2451505;27;45222;-62
2022/12/29 02:49:38;;;;;;;;;0.00;0.00;;;;;19.71;48.94;100428.44;2450772;28;45618;-62
2022/12/29 02:51:04;;;;;;;;;0.00;0.00;;;;;19.72;49.02;100424.81;2450366;28;45497;-62
2022/12/29 02:52:27;;;;;;;;;0.00;0.00;;;;;19.72;48.81;100432.81;2451059;28;45388;-62
2022/12/29 02:55:11;;;;;;;;;0.00;0.00;;;;;19.71;48.90;100423.09;2451082;28;45298;-62
2022/12/29 02:56:21;;;;;;;;;0.00;0.00;;;;;19.71;48.99;100411.59;2451180;27;45270;-62
2022/12/29 02:57:34;;;;;;;;;0.00;0.00;;;;;19.71;48.66;100423.09;2450914;27;45584;-62
2022/12/29 02:58:44;;;;;;;;;0.00;0.00;;;;;19.71;48.92;100417.78;2450176;27;45247;-62
2022/12/29 03:00:03;;;;;;;;;0.00;0.00;;;;;19.71;49.08;100422.25;2450094;27;45447;-62
2022/12/29 03:01:33;;;;;;;;;0.00;0.00;;;;;19.70;48.83;100421.44;2450386;27;44675;-62
2022/12/29 03:02:50;;;;;;;;;0.00;0.00;;;;;19.70;48.96;100420.56;2450979;27;45536;-62
2022/12/29 03:04:31;;;;;;;;;0.00;0.00;;;;;19.70;48.88;100404.56;2450075;28;45206;-62
2022/12/29 03:05:57;;;;;;;;;1.00;0.00;;;;;19.70;48.97;100417.91;2450733;28;46577;-62
2022/12/29 03:07:18;;;;;;;;;0.00;0.00;;;;;19.69;48.91;100417.06;2450950;28;45212;-62
2022/12/29 03:08:40;;;;;;;;;0.00;0.00;;;;;19.68;48.78;100418.00;2451042;27;45592;-62
2022/12/29 03:10:06;;;;;;;;;0.00;0.00;;;;;19.69;48.83;100427.72;2451045;28;45320;-62
2022/12/29 03:16:23;;;;;;;;;0.00;0.00;;;;;19.70;48.73;100404.56;2451173;28;44534;-62
2022/12/29 03:18:10;;;;;;;;;0.00;0.00;;;;;19.71;48.71;100406.25;2450857;27;47210;-62
2022/12/29 03:19:31;;;;;;;;;0.00;0.00;;;;;19.69;48.88;100403.72;2451222;27;45364;-62
2022/12/29 03:22:26;;;;;;;;;0.00;0.00;;;;;19.70;48.74;100405.44;2450867;27;46595;-62
2022/12/29 03:23:01;;;;;;;;;1.00;0.00;;;;;19.70;48.75;100405.44;2428471;28;45271;-62
2022/12/29 03:24:13;;;;;;;;;0.00;0.00;;;;;19.71;48.73;100400.94;2428013;28;45536;-62
2022/12/29 03:25:31;;;;;;;;;0.00;0.00;;;;;19.71;48.54;100399.13;2430231;28;45368;-62
2022/12/29 03:26:45;;;;;;;;;0.00;0.00;;;;;19.71;48.74;100398.25;2430212;28;46542;-62
2022/12/29 03:28:01;;;;;;;;;0.00;0.00;;;;;19.72;48.39;100416.81;2438202;27;44781;-62
2022/12/29 03:29:13;;;;;;;;;0.00;0.00;;;;;19.73;48.88;100420.34;2451055;27;45313;-62
2022/12/29 03:30:26;;;;;;;;;0.00;0.00;;;;;19.73;48.67;100423.00;2450969;27;45243;-62
2022/12/29 03:31:38;;;;;;;;;0.00;0.00;;;;;19.72;48.57;100413.28;2447910;28;45441;-62
2022/12/29 03:32:57;;;;;;;;;0.00;0.00;;;;;19.71;48.89;100417.78;2451084;27;45221;-62
2022/12/29 03:34:10;;;;;;;;;0.00;0.00;;;;;19.73;48.67;100425.69;2450915;27;45404;-62
2022/12/29 03:35:25;;;;;;;;;0.25;0.00;;;;;19.73;48.66;100418.50;2450970;27;45425;-62
2022/12/29 03:36:45;;;;;;;;;0.00;0.00;;;;;19.74;48.64;100417.53;2450828;27;46135;-62
2022/12/29 03:38:05;;;;;;;;;0.00;0.00;;;;;19.74;48.64;100422.88;2451006;27;45429;-62
2022/12/29 03:39:20;;;;;;;;;0.00;0.00;;;;;19.74;48.72;100427.34;2450969;27;45509;-62
2022/12/29 03:40:33;;;;;;;;;0.00;0.00;;;;;19.74;48.68;100428.22;2450221;27;45337;-62
2022/12/29 03:41:45;;;;;;;;;0.00;0.00;;;;;19.73;48.51;100429.16;2450942;27;46170;-62
2022/12/29 03:42:56;;;;;;;;;0.00;0.00;;;;;19.74;48.60;100444.22;2450827;28;44657;-62
2022/12/29 03:44:07;;;;;;;;;0.00;0.00;;;;;19.75;48.22;100431.72;2450773;27;45412;-62
2022/12/29 03:45:18;;;;;;;;;0.00;0.00;;;;;19.75;48.67;100429.91;2450941;27;45273;-62
2022/12/29 03:46:28;;;;;;;;;0.00;0.00;;;;;19.75;48.22;100429.06;2450727;27;46289;-62
2022/12/29 03:47:39;;;;;;;;;0.25;0.00;;;;;19.75;48.46;100434.41;2450792;27;45214;-62
2022/12/29 03:48:49;;;;;;;;;0.00;0.00;;;;;19.76;48.44;100441.41;2449561;27;45482;-62
2022/12/29 03:49:59;;;;;;;;;0.00;0.00;;;;;19.75;48.24;100435.25;2451098;27;45155;-62
2022/12/29 03:51:10;;;;;;;;;0.00;0.00;;;;;19.75;48.48;100434.41;2450608;28;46485;-62
2022/12/29 03:52:20;;;;;;;;;0.00;0.00;;;;;19.75;48.40;100432.59;2450838;27;45155;-62
2022/12/29 03:53:31;;;;;;;;;0.00;0.00;;;;;19.76;48.65;100430.75;2451557;27;45416;-62
2022/12/29 03:54:41;;;;;;;;;0.00;0.00;;;;;19.76;48.52;100439.59;2452624;27;45325;-62
2022/12/29 03:55:51;;;;;;;;;0.00;0.00;;;;;19.76;48.46;100439.59;2452156;27;45322;-62
2022/12/29 03:57:01;;;;;;;;;0.00;0.00;;;;;19.77;48.51;100437.78;2452482;27;45159;-62
2022/12/29 03:58:12;;;;;;;;;0.00;0.00;;;;;19.76;48.62;100439.59;2452369;27;45277;-62
2022/12/29 03:59:22;;;;;;;;;0.00;0.00;;;;;19.76;48.25;100436.06;2452673;27;45328;-62
2022/12/29 04:00:33;;;;;;;;;0.00;0.00;;;;;19.75;48.47;100440.59;2452367;27;45313;-62
2022/12/29 04:01:43;;;;;;;;;0.00;0.00;;;;;19.76;48.18;100436.06;2452560;27;45251;-62
2022/12/29 04:02:54;;;;;;;;;0.00;0.00;;;;;19.75;48.62;100435.25;2451614;27;46267;-62
2022/12/29 04:04:04;;;;;;;;;0.00;0.00;;;;;19.76;48.40;100423.59;2452477;27;45331;-62
2022/12/29 04:05:14;;;;;;;;;0.00;0.00;;;;;19.76;48.48;100431.59;2452145;27;46542;-62
2022/12/29 04:06:25;;;;;;;;;0.00;0.00;;;;;19.75;48.21;100427.25;2452189;27;45414;-62
2022/12/29 04:07:35;;;;;;;;;0.00;0.00;;;;;19.75;48.42;100429.91;2452592;27;45315;-62
2022/12/29 04:08:45;;;;;;;;;0.00;0.00;;;;;19.75;48.45;100429.06;2452515;27;45246;-62
2022/12/29 04:09:55;;;;;;;;;0.00;0.00;;;;;19.76;48.17;100434.28;2452174;27;46281;-62
2022/12/29 04:11:06;;;;;;;;;1.00;0.00;;;;;19.76;48.43;100436.94;2451993;27;45197;-62
2022/12/29 04:12:16;;;;;;;;;0.00;0.00;;;;;19.76;48.33;100436.94;2451980;27;45470;-62
2022/12/29 04:13:26;;;;;;;;;0.00;0.00;;;;;19.76;48.24;100434.28;2452364;27;45217;-62
2022/12/29 04:14:37;;;;;;;;;0.00;0.00;;;;;19.75;48.31;100429.91;2452463;27;45183;-62
2022/12/29 04:15:47;;;;;;;;;1.00;0.00;;;;;19.75;48.09;100427.25;2452362;27;45358;-62
2022/12/29 04:16:57;;;;;;;;;0.00;0.00;;;;;19.75;48.31;100429.91;2451256;27;47170;-62
2022/12/29 04:18:08;;;;;;;;;0.00;0.00;;;;;19.76;48.33;100433.41;2452410;27;45235;-62
2022/12/29 04:19:18;;;;;;;;;0.00;0.00;;;;;19.76;48.08;100441.41;2452363;27;45289;-62
2022/12/29 04:21:57;;;;;;;;;0.00;0.00;;;;;19.76;48.00;100436.06;2452202;28;45144;-62
2022/12/29 04:23:08;;;;;;;;;0.00;0.00;;;;;19.75;48.07;100431.72;2452370;27;45240;-62
2022/12/29 04:24:18;;;;;;;;;0.00;0.00;;;;;19.75;48.11;100440.59;2452839;27;45528;-62
2022/12/29 04:25:31;;;;;;;;;0.00;0.00;;;;;19.76;48.30;100442.28;2452088;27;45164;-62
2022/12/29 04:26:41;;;;;;;;;0.00;0.00;;;;;19.77;48.12;100443.13;2451834;27;45310;-62
2022/12/29 04:27:52;;;;;;;;;0.00;0.00;;;;;19.76;48.25;100442.28;2452460;27;45234;-62
2022/12/29 04:29:02;;;;;;;;;1.00;0.00;;;;;19.77;48.46;100454.66;2452339;27;46622;-62
2022/12/29 04:30:12;;;;;;;;;0.00;0.00;;;;;19.77;48.08;100465.31;2451528;28;45383;-62
2022/12/29 04:31:22;;;;;;;;;0.00;0.00;;;;;19.78;48.06;100460.81;2451723;28;46157;-62
2022/12/29 04:32:33;;;;;;;;;0.00;0.00;;;;;19.78;48.39;100467.00;2452336;27;44659;-62
2022/12/29 04:33:43;;;;;;;;;0.00;0.00;;;;;19.81;48.44;100470.38;2452313;27;45442;-62
2022/12/29 04:34:53;;;;;;;;;0.00;0.00;;;;;19.79;48.28;100468.69;2452280;27;45434;-62
2022/12/29 04:36:04;;;;;;;;;0.00;0.00;;;;;19.82;48.38;100477.44;2452210;27;46552;-62
2022/12/29 04:37:14;;;;;;;;;0.00;0.00;;;;;19.83;48.57;100485.31;2452400;27;44711;-62
2022/12/29 04:38:25;;;;;;;;;0.00;0.00;;;;;19.83;48.26;100471.97;2452120;27;45368;-62
2022/12/29 04:39:35;;;;;;;;;0.00;0.00;;;;;19.85;48.18;100469.19;2452270;27;45306;-62
2022/12/29 04:40:46;;;;;;;;;0.00;0.00;;;;;19.86;48.32;100473.56;2451387;27;45232;-62
2022/12/29 04:41:56;;;;;;;;;0.00;0.00;;;;;19.87;48.38;100475.25;2452176;27;44540;-62
2022/12/29 04:43:07;;;;;;;;;0.00;0.00;;;;;19.88;48.36;100479.59;2452046;27;45274;-62
2022/12/29 04:44:18;;;;;;;;;0.00;0.00;;;;;19.88;48.25;100476.94;2450990;27;45238;-62
2022/12/29 04:45:28;;;;;;;;;0.00;0.00;;;;;19.89;48.22;100478.66;2451254;28;46437;-63
2022/12/29 04:46:38;;;;;;;;;0.00;0.00;;;;;19.90;48.21;100473.19;2450869;27;45297;-62
2022/12/29 04:47:49;;;;;;;;;0.00;0.00;;;;;19.91;48.27;100476.72;2452163;27;46261;-62
2022/12/29 04:49:04;;;;;;;;;0.00;0.00;;;;;19.94;48.22;100475.63;2445766;27;44846;-62
2022/12/29 04:50:14;;;;;;;;;0.00;0.00;;;;;19.93;48.34;100474.78;2444785;28;47519;-62
2022/12/29 04:51:25;;;;;;;;;0.00;0.00;;;;;19.95;48.27;100480.84;2451765;28;44711;-62
2022/12/29 04:52:35;;;;;;;;;0.00;0.00;;;;;19.96;48.27;100471.03;2452061;27;45229;-62
2022/12/29 04:53:46;;;;;;;;;0.00;0.00;;;;;19.97;48.27;100473.59;2452169;27;45153;-62
2022/12/29 04:54:56;;;;;;;;;0.00;0.00;;;;;19.97;48.28;100470.94;2451879;27;47074;-62
2022/12/29 04:56:06;;;;;;;;;0.00;0.00;;;;;19.97;48.33;100470.94;2452206;27;44589;-62
2022/12/29 04:57:17;;;;;;;;;0.25;0.00;;;;;19.99;48.36;100473.47;2451780;27;45442;-62
2022/12/29 04:58:27;;;;;;;;;0.50;0.00;;;;;19.99;48.33;100471.66;2452162;27;45262;-62
2022/12/29 04:59:37;;;;;;;;;0.00;0.00;;;;;20.00;48.04;100468.00;2451998;27;46557;-62
2022/12/29 05:00:48;;;;;;;;;0.00;0.00;;;;;20.01;48.29;100467.03;2452367;27;45156;-62
2022/12/29 05:01:58;;;;;;;;;0.75;0.00;;;;;20.01;48.02;100472.38;2451925;27;45176;-62
2022/12/29 05:03:08;;;;;;;;;1.00;0.00;;;;;20.03;48.25;100477.56;2452136;27;45203;-62
2022/12/29 05:04:19;;;;;;;;;0.00;0.00;;;;;20.03;48.14;100485.56;2451967;27;45437;-62
2022/12/29 05:05:29;;;;;;;;;0.00;0.00;;;;;20.04;48.20;100481.09;2451807;27;45230;-62
2022/12/29 05:06:39;;;;;;;;;0.00;0.00;;;;;20.05;48.22;100485.47;2451535;27;45424;-62
2022/12/29 05:07:50;;;;;;;;;0.00;0.00;;;;;20.05;48.05;100491.63;2452106;27;45163;-62
2022/12/29 05:09:00;;;;;;;;;0.50;0.00;;;;;20.06;48.19;100495.16;2452015;27;45358;-62
2022/12/29 05:10:11;;;;;;;;;0.00;0.00;;;;;20.05;48.00;100496.16;2451413;27;45474;-62
2022/12/29 05:11:21;;;;;;;;;0.00;0.00;;;;;20.06;48.14;100503.16;2451946;27;46184;-62
2022/12/29 05:12:33;;;;;;;;;0.00;0.00;;;;;20.06;48.07;100508.50;2451973;27;45297;-62
2022/12/29 05:13:46;;;;;;;;;0.00;0.00;;;;;20.06;47.94;100506.69;2451705;27;45941;-62
2022/12/29 05:14:56;;;;;;;;;1.00;0.00;;;;;20.06;48.22;100513.84;2451948;27;44697;-62
2022/12/29 05:16:06;;;;;;;;;0.00;0.00;;;;;20.07;48.18;100502.22;2451821;27;46457;-62
2022/12/29 05:17:17;;;;;;;;;0.00;0.00;;;;;20.07;48.22;100500.41;2442095;28;45156;-62
2022/12/29 05:18:27;;;;;;;;;0.00;0.00;;;;;20.08;48.01;100509.22;2450049;28;45431;-62
2022/12/29 05:19:38;;;;;;;;;1.00;0.00;;;;;20.07;48.01;100505.75;2451950;27;45214;-62
2022/12/29 05:20:48;;;;;;;;;0.00;0.00;;;;;20.07;48.05;100503.06;2451251;27;46443;-62
2022/12/29 05:21:59;;;;;;;;;0.00;0.00;;;;;20.08;48.19;100504.75;2452120;27;44662;-62
2022/12/29 05:23:09;;;;;;;;;1.00;0.00;;;;;20.08;48.06;100503.88;2451665;27;45429;-62
2022/12/29 05:24:19;;;;;;;;;0.00;0.00;;;;;20.08;47.90;100511.91;2451977;27;45403;-62
2022/12/29 05:25:30;;;;;;;;;0.00;0.00;;;;;20.09;47.98;100500.28;2451656;28;45349;-62
2022/12/29 05:26:41;;;;;;;;;0.00;0.00;;;;;20.09;47.92;100502.94;2451723;27;45291;-62
2022/12/29 05:27:51;;;;;;;;;1.25;0.00;;;;;20.10;47.97;100500.13;2451767;27;45338;-62
2022/12/29 05:29:01;;;;;;;;;0.00;0.00;;;;;20.10;47.97;100509.97;2451924;27;44672;-62
2022/12/29 05:30:12;;;;;;;;;0.00;0.00;;;;;20.11;47.94;100506.38;2451792;27;46269;-62
2022/12/29 05:31:22;;;;;;;;;0.00;0.00;;;;;20.12;47.98;100502.75;2451877;27;45305;-62
2022/12/29 05:32:33;;;;;;;;;0.00;0.00;;;;;20.12;48.02;100498.22;2451690;27;46553;-62
2022/12/29 05:33:43;;;;;;;;;0.00;0.00;;;;;20.12;47.99;100508.06;2451872;27;45250;-62
2022/12/29 05:34:53;;;;;;;;;0.50;0.00;;;;;20.14;48.26;100508.81;2451721;27;46419;-62
2022/12/29 05:36:06;;;;;;;;;0.00;0.00;;;;;20.14;47.88;100506.13;2451791;28;45247;-62
2022/12/29 05:37:16;;;;;;;;;0.75;0.00;;;;;20.14;48.08;100508.81;2450728;27;47311;-62
2022/12/29 05:38:26;;;;;;;;;0.00;0.00;;;;;20.16;48.25;100516.69;2451670;27;45380;-62
2022/12/29 05:39:37;;;;;;;;;0.50;0.00;;;;;20.16;48.14;100511.34;2450271;27;46397;-62
2022/12/29 05:40:47;;;;;;;;;0.00;0.00;;;;;20.16;48.08;100514.84;2441935;28;45230;-62
2022/12/29 05:41:57;;;;;;;;;1.00;0.00;;;;;20.17;48.13;100521.91;2449053;28;45495;-62
2022/12/29 05:43:08;;;;;;;;;0.00;0.00;;;;;20.18;47.94;100522.72;2451053;27;45211;-62
2022/12/29 05:44:18;;;;;;;;;0.00;0.00;;;;;20.18;47.87;100522.72;2451718;27;46243;-62
2022/12/29 05:45:28;;;;;;;;;0.50;0.00;;;;;20.19;47.94;100524.44;2451779;27;45167;-62
2022/12/29 05:46:39;;;;;;;;;0.00;0.00;;;;;20.19;47.76;100516.44;2451487;27;46181;-62
2022/12/29 05:47:49;;;;;;;;;0.00;0.00;;;;;20.19;47.81;100514.63;2451669;27;45151;-62
2022/12/29 05:48:59;;;;;;;;;0.00;0.00;;;;;20.21;47.90;100527.84;2451693;27;46190;-62
2022/12/29 05:50:10;;;;;;;;;0.00;0.00;;;;;20.20;47.97;100512.81;2451077;27;45246;-62
2022/12/29 05:51:20;;;;;;;;;0.00;0.00;;;;;20.21;48.02;100507.34;2451525;27;45282;-62
2022/12/29 05:52:30;;;;;;;;;0.00;0.00;;;;;20.22;47.87;100511.69;2451714;27;45251;-62
2022/12/29 05:53:41;;;;;;;;;0.00;0.00;;;;;20.22;47.76;100510.88;2451737;27;45296;-62
2022/12/29 05:54:51;;;;;;;;;0.00;0.00;;;;;20.23;47.88;100512.56;2451419;27;45350;-62
2022/12/29 05:56:02;;;;;;;;;0.00;0.00;;;;;20.24;48.05;100514.28;2451537;27;46353;-62
2022/12/29 05:57:12;;;;;;;;;0.00;0.00;;;;;20.24;47.66;100522.28;2454808;27;44828;-62
2022/12/29 05:58:22;;;;;;;;;0.00;0.00;;;;;20.26;47.97;100532.81;2448373;28;45334;-62
2022/12/29 05:59:33;;;;;;;;;0.00;0.00;;;;;20.27;47.81;100534.53;2450627;28;45439;-62
2022/12/29 06:00:43;;;;;;;;;0.00;0.00;;;;;20.27;47.95;100539.88;2451349;27;46552;-62
2022/12/29 06:01:54;;;;;;;;;0.00;0.00;;;;;20.27;48.03;100529.19;2451557;27;45312;-62
2022/12/29 06:03:04;;;;;;;;;0.00;0.00;;;;;20.28;48.07;100537.06;2451579;27;46625;-62
2022/12/29 06:04:14;;;;;;;;;0.00;0.00;;;;;20.29;47.96;100535.25;2443208;27;45250;-62
2022/12/29 06:05:25;;;;;;;;;0.00;0.00;;;;;20.29;47.79;100532.59;2445481;28;45996;-62
2022/12/29 06:06:35;;;;;;;;;0.00;0.00;;;;;20.29;48.30;100537.94;2441906;27;45219;-62
2022/12/29 06:07:46;;;;;;;;;0.00;0.00;;;;;20.31;47.96;100541.31;2448677;28;45302;-62
2022/12/29 06:08:56;;;;;;;;;0.00;0.00;;;;;20.30;48.00;100535.13;2451575;27;44615;-63
2022/12/29 06:10:07;;;;;;;;;0.00;0.00;;;;;20.31;47.84;100552.00;2451224;27;45274;-62
2022/12/29 06:11:18;;;;;;;;;0.00;0.00;;;;;20.31;47.72;100550.19;2451492;27;45253;-62
2022/12/29 06:12:29;;;;;;;;;0.00;0.00;;;;;20.31;48.12;100547.50;2451274;27;45406;-62
2022/12/29 06:13:39;;;;;;;;;0.00;0.00;;;;;20.32;48.00;100556.38;2450609;27;45191;-62
2022/12/29 06:14:49;;;;;;;;;1.00;0.00;;;;;20.32;47.97;100559.03;2451450;27;46368;-62
2022/12/29 06:16:00;;;;;;;;;0.00;0.00;;;;;20.32;48.05;100562.53;2450783;27;45198;-62
2022/12/29 06:17:10;;;;;;;;;0.00;0.00;;;;;20.32;47.96;100562.53;2451343;27;46403;-62
2022/12/29 06:18:20;;;;;;;;;0.00;0.00;;;;;20.33;47.99;100560.72;2450155;27;45324;-62